Time;durP1;ratioP1;P1;durP2;ratioP2;P2;SDS_P1;SDS_P2;PMS_P1;PMS_P2;Temp;Humidity;BMP_temperature;BMP_pressure;BME280_temperature;BME280_humidity;BME280_pressure;Samples;Min_cycle;Max_cycle;Signal;HPM_P1;HPM_P2
2021/09/03 00:00:45;;;;;;;7.70;5.10;;;;;;;12.19;92.12;101727.74;110775;1198;61205;-79
2021/09/03 00:03:12;;;;;;;7.90;5.10;;;;;;;12.16;92.28;101726.98;110801;1201;61239;-80
2021/09/03 00:05:38;;;;;;;7.40;5.00;;;;;;;12.14;92.50;101727.75;110888;1205;74521;-79
2021/09/03 00:08:05;;;;;;;11.10;5.10;;;;;;;12.10;92.49;101725.08;110698;1206;61086;-80
2021/09/03 00:10:32;;;;;;;10.60;4.60;;;;;;;12.07;92.16;101721.85;110831;1204;71671;-80
2021/09/03 00:12:58;;;;;;;7.70;5.00;;;;;;;12.03;92.28;101720.53;110914;1205;63125;-80
2021/09/03 00:15:25;;;;;;;10.40;5.50;;;;;;;12.01;92.69;101718.45;110897;1205;60948;-79
2021/09/03 00:17:52;;;;;;;11.00;5.30;;;;;;;11.99;92.92;101717.92;110856;1206;61034;-80
2021/09/03 00:20:18;;;;;;;8.70;4.50;;;;;;;11.97;92.48;101717.06;110877;1204;70962;-80
2021/09/03 00:22:45;;;;;;;8.10;5.40;;;;;;;11.94;92.76;101713.62;110923;1198;61111;-79
2021/09/03 00:25:13;;;;;;;8.90;4.90;;;;;;;11.95;92.96;101713.02;110829;1206;60987;-79
2021/09/03 00:27:40;;;;;;;12.40;4.00;;;;;;;11.96;92.91;101708.52;110903;1204;62672;-79
2021/09/03 00:30:08;;;;;;;10.30;4.60;;;;;;;11.95;92.60;101711.91;110788;1205;74617;-79
2021/09/03 00:32:34;;;;;;;8.60;4.50;;;;;;;11.95;92.60;101710.72;110828;1204;72081;-80
2021/09/03 00:35:01;;;;;;;10.00;4.10;;;;;;;11.95;92.66;101709.86;111610;1207;61093;-82
2021/09/03 00:37:28;;;;;;;11.70;4.80;;;;;;;11.95;92.80;101707.03;110869;1205;61925;-81
2021/09/03 00:39:55;;;;;;;8.50;5.70;;;;;;;11.95;93.22;101707.16;110843;1204;61380;-80
2021/09/03 00:42:22;;;;;;;16.70;5.40;;;;;;;11.94;92.76;101704.63;110788;1204;74919;-79
2021/09/03 00:44:49;;;;;;;9.90;5.10;;;;;;;11.91;92.39;101703.02;110787;1205;71727;-80
2021/09/03 00:47:16;;;;;;;7.80;4.50;;;;;;;11.85;92.11;101704.25;111054;1206;72533;-78
2021/09/03 00:49:43;;;;;;;13.50;4.60;;;;;;;11.81;92.60;101702.34;110837;1205;61875;-77
2021/09/03 00:52:10;;;;;;;6.60;4.30;;;;;;;11.80;92.97;101700.35;110737;1205;61187;-79
2021/09/03 00:54:37;;;;;;;10.10;4.90;;;;;;;11.80;93.00;101701.90;110808;1206;73554;-81
2021/09/03 00:57:04;;;;;;;10.00;4.60;;;;;;;11.79;92.63;101703.27;110893;1203;70796;-79
2021/09/03 00:59:31;;;;;;;9.30;5.00;;;;;;;11.76;92.64;101697.05;111064;1206;73548;-81
2021/09/03 01:01:57;;;;;;;8.80;4.90;;;;;;;11.75;92.60;101696.77;110826;1197;61622;-79
2021/09/03 01:04:25;;;;;;;11.10;5.90;;;;;;;11.72;92.47;101694.92;111084;1206;61113;-78
2021/09/03 01:06:51;;;;;;;9.10;4.70;;;;;;;11.71;92.71;101692.81;111452;1204;74485;-78
2021/09/03 01:09:18;;;;;;;12.00;4.50;;;;;;;11.68;92.44;101693.59;111581;1204;61066;-79
2021/09/03 01:11:45;;;;;;;9.90;4.50;;;;;;;11.65;92.48;101689.53;111584;1205;72407;-78
2021/09/03 01:14:11;;;;;;;11.80;4.50;;;;;;;11.63;92.82;101685.84;110770;1206;62634;-78
2021/09/03 01:16:39;;;;;;;10.00;5.00;;;;;;;11.62;92.89;101681.47;110722;1206;60987;-82
2021/09/03 01:19:06;;;;;;;15.80;5.60;;;;;;;11.61;93.08;101682.14;111301;1198;76172;-80
2021/09/03 01:21:33;;;;;;;10.40;5.00;;;;;;;11.59;93.12;101685.10;110887;1204;71332;-81
2021/09/03 01:23:59;;;;;;;7.90;4.60;;;;;;;11.58;93.19;101682.10;110895;1205;71684;-81
2021/09/03 01:26:26;;;;;;;11.60;4.70;;;;;;;11.56;92.95;101680.88;110897;1204;62229;-80
2021/09/03 01:28:52;;;;;;;8.50;5.10;;;;;;;11.54;92.64;101683.14;110971;1204;61013;-78
2021/09/03 01:31:19;;;;;;;9.90;4.10;;;;;;;11.53;92.68;101682.05;110804;1207;61189;-79
2021/09/03 01:33:47;;;;;;;10.20;5.40;;;;;;;11.52;92.91;101678.48;110884;1206;70747;-80
2021/09/03 01:36:14;;;;;;;12.30;4.90;;;;;;;11.51;93.04;101678.39;110898;1206;72590;-80
2021/09/03 01:38:42;;;;;;;11.60;5.20;;;;;;;11.49;93.22;101675.55;110876;1206;62215;-80
2021/09/03 01:41:10;;;;;;;10.10;4.70;;;;;;;11.50;93.68;101672.11;110878;1206;61072;-79
2021/09/03 01:43:36;;;;;;;6.30;4.20;;;;;;;11.49;93.47;101672.54;110896;1205;74566;-78
2021/09/03 01:46:06;;;;;;;8.60;4.90;;;;;;;11.46;93.01;101668.73;110866;1204;61119;-79
2021/09/03 01:48:33;;;;;;;9.20;5.10;;;;;;;11.42;92.82;101668.23;110844;1204;72391;-80
2021/09/03 01:51:00;;;;;;;9.70;4.90;;;;;;;11.37;92.48;101667.84;110613;1206;61079;-78
2021/09/03 01:53:26;;;;;;;9.50;4.70;;;;;;;11.33;92.64;101667.77;110664;1205;61076;-78
2021/09/03 01:55:53;;;;;;;7.90;4.70;;;;;;;11.30;92.94;101663.84;110817;1205;61105;-79
2021/09/03 01:58:19;;;;;;;8.70;4.80;;;;;;;11.30;93.12;101658.55;110604;1204;62425;-79
2021/09/03 02:00:46;;;;;;;9.80;5.50;;;;;;;11.31;92.93;101655.39;110755;1206;61096;-77
2021/09/03 02:03:14;;;;;;;7.80;5.00;;;;;;;11.30;93.09;101655.80;110762;1206;61089;-79
2021/09/03 02:05:41;;;;;;;13.40;6.40;;;;;;;11.28;93.49;101650.57;110753;1205;61101;-78
2021/09/03 02:08:08;;;;;;;7.30;5.00;;;;;;;11.28;93.67;101648.65;110956;1205;74866;-79
2021/09/03 02:10:35;;;;;;;9.90;4.90;;;;;;;11.25;93.06;101642.73;110791;1204;71032;-78
2021/09/03 02:13:02;;;;;;;7.90;4.90;;;;;;;11.21;92.82;101643.66;110781;1205;72433;-80
2021/09/03 02:15:29;;;;;;;6.60;4.50;;;;;;;11.18;92.84;101645.56;110761;1205;61850;-80
2021/09/03 02:17:56;;;;;;;8.00;4.30;;;;;;;11.15;93.02;101646.91;110847;1207;61068;-79
2021/09/03 02:20:22;;;;;;;9.10;4.40;;;;;;;11.14;93.21;101647.20;110705;1206;74731;-79
2021/09/03 02:22:49;;;;;;;11.00;4.70;;;;;;;11.12;93.33;101646.73;110736;1205;61081;-79
2021/09/03 02:25:15;;;;;;;6.10;3.90;;;;;;;11.11;93.66;101643.86;110672;1205;61570;-77
2021/09/03 02:27:42;;;;;;;5.90;3.50;;;;;;;11.08;93.06;101644.27;110659;1205;61090;-79
2021/09/03 02:30:09;;;;;;;8.00;3.50;;;;;;;11.06;93.08;101643.98;110799;1206;61386;-79
2021/09/03 02:32:36;;;;;;;8.40;4.70;;;;;;;11.01;92.68;101647.04;110901;1206;74218;-78
2021/09/03 02:35:03;;;;;;;6.10;3.40;;;;;;;10.98;92.43;101647.73;110725;1207;69768;-79
2021/09/03 02:37:30;;;;;;;6.00;3.40;;;;;;;10.96;92.76;101647.23;111208;1205;72297;-79
2021/09/03 02:39:57;;;;;;;4.20;3.00;;;;;;;10.95;93.05;101647.69;111025;1205;61076;-78
2021/09/03 02:42:23;;;;;;;7.60;4.20;;;;;;;10.94;92.84;101644.98;110916;1205;61101;-80
2021/09/03 02:44:50;;;;;;;5.40;3.40;;;;;;;10.92;92.92;101641.96;110785;1207;61745;-78
2021/09/03 02:47:16;;;;;;;4.70;3.20;;;;;;;10.91;92.77;101640.52;110827;1206;61547;-79
2021/09/03 02:49:42;;;;;;;5.80;4.50;;;;;;;10.89;92.86;101635.39;110787;1206;61102;-79
2021/09/03 02:52:09;;;;;;;6.50;3.60;;;;;;;10.87;93.19;101630.67;110809;1205;61314;-78
2021/09/03 02:54:35;;;;;;;5.90;4.10;;;;;;;10.85;93.32;101627.30;110727;1206;61090;-81
2021/09/03 02:57:02;;;;;;;7.90;3.80;;;;;;;10.85;93.12;101625.17;110698;1205;61532;-81
2021/09/03 02:59:29;;;;;;;5.80;3.90;;;;;;;10.85;93.16;101624.27;110907;1205;61053;-79
2021/09/03 03:01:55;;;;;;;5.70;3.60;;;;;;;10.84;93.09;101624.58;110872;1204;61084;-80
2021/09/03 03:04:22;;;;;;;8.60;4.30;;;;;;;10.84;93.11;101627.92;110761;1205;61863;-78
2021/09/03 03:06:49;;;;;;;6.80;3.40;;;;;;;10.84;92.92;101627.25;110744;1198;61153;-77
2021/09/03 03:09:15;;;;;;;6.60;4.20;;;;;;;10.82;93.12;101628.08;110690;1205;60954;-79
2021/09/03 03:11:41;;;;;;;8.00;4.10;;;;;;;10.81;93.39;101628.77;110772;1206;61151;-77
2021/09/03 03:14:15;;;;;;;7.10;4.40;;;;;;;10.79;93.55;101627.31;110692;1205;61510;-79
2021/09/03 03:16:42;;;;;;;6.20;4.30;;;;;;;10.78;93.38;101623.39;110936;1205;62996;-78
2021/09/03 03:19:08;;;;;;;7.10;4.70;;;;;;;10.76;93.16;101618.66;110673;1205;61081;-77
2021/09/03 03:21:35;;;;;;;8.00;5.30;;;;;;;10.74;93.14;101614.98;110793;1205;61126;-78
2021/09/03 03:24:01;;;;;;;9.10;5.00;;;;;;;10.71;93.38;101613.26;110757;1205;61092;-78
2021/09/03 03:26:28;;;;;;;12.40;6.10;;;;;;;10.69;93.60;101610.14;110818;1205;72656;-78
2021/09/03 03:28:54;;;;;;;14.60;7.00;;;;;;;10.66;93.88;101607.39;110840;1198;61092;-77
2021/09/03 03:31:21;;;;;;;12.10;6.30;;;;;;;10.63;94.29;101604.02;110847;1205;61056;-77
2021/09/03 03:33:47;;;;;;;12.70;6.50;;;;;;;10.60;94.68;101600.36;110838;1206;61146;-77
2021/09/03 03:36:14;;;;;;;15.20;7.60;;;;;;;10.59;94.94;101596.91;110725;1205;61441;-78
2021/09/03 03:38:40;;;;;;;14.50;7.00;;;;;;;10.57;95.07;101599.05;110824;1205;61056;-79
2021/09/03 03:41:07;;;;;;;17.70;7.70;;;;;;;10.58;95.48;101594.42;110822;1206;61549;-79
2021/09/03 03:43:33;;;;;;;17.30;6.90;;;;;;;10.59;95.54;101594.08;110672;1205;61090;-79
2021/09/03 03:45:59;;;;;;;16.10;6.90;;;;;;;10.58;95.16;101592.64;110825;1205;61622;-78
2021/09/03 03:48:26;;;;;;;20.80;7.20;;;;;;;10.54;94.73;101590.73;110848;1207;61549;-80
2021/09/03 03:50:54;;;;;;;14.30;6.60;;;;;;;10.50;94.78;101589.36;110906;1205;73589;-79
2021/09/03 03:53:21;;;;;;;17.60;6.80;;;;;;;10.49;95.24;101582.22;111060;1205;62037;-81
2021/09/03 03:55:48;;;;;;;13.00;7.10;;;;;;;10.50;95.78;101583.02;111092;1198;61333;-81
2021/09/03 03:58:14;;;;;;;10.40;6.00;;;;;;;10.54;96.39;101580.17;110868;1205;75719;-80
2021/09/03 04:00:41;;;;;;;12.10;5.70;;;;;;;10.59;96.78;101582.11;110871;1203;71757;-79
2021/09/03 04:03:07;;;;;;;12.30;6.50;;;;;;;10.65;97.01;101579.63;110639;1205;73347;-80
2021/09/03 04:05:34;;;;;;;12.70;6.60;;;;;;;10.68;96.77;101576.23;110616;1206;63079;-79
2021/09/03 04:08:01;;;;;;;11.50;6.40;;;;;;;10.71;96.57;101577.36;110860;1205;61243;-78
2021/09/03 04:10:28;;;;;;;8.90;6.10;;;;;;;10.73;96.59;101580.33;110775;1204;74612;-80
2021/09/03 04:12:54;;;;;;;10.20;6.30;;;;;;;10.77;96.81;101582.21;110775;1198;71960;-79
2021/09/03 04:15:21;;;;;;;13.40;7.00;;;;;;;10.80;96.38;101581.44;110693;1205;61076;-79
2021/09/03 04:17:47;;;;;;;12.10;7.10;;;;;;;10.79;96.16;101580.98;110881;1198;61092;-77
2021/09/03 04:20:13;;;;;;;12.10;6.10;;;;;;;10.83;96.35;101579.73;110941;1207;61101;-78
2021/09/03 04:22:40;;;;;;;12.40;5.60;;;;;;;10.80;95.82;101575.90;110825;1205;61012;-78
2021/09/03 04:25:08;;;;;;;8.80;5.80;;;;;;;10.77;96.01;101574.63;110785;1205;61070;-77
2021/09/03 04:27:36;;;;;;;9.20;6.60;;;;;;;10.78;96.39;101572.37;111117;1205;72565;-77
2021/09/03 04:30:04;;;;;;;10.90;5.90;;;;;;;10.80;96.94;101570.76;110850;1205;61191;-78
2021/09/03 04:32:30;;;;;;;12.00;7.70;;;;;;;10.83;96.85;101569.29;110691;1205;61074;-79
2021/09/03 04:34:57;;;;;;;13.20;8.10;;;;;;;10.85;97.00;101572.05;110821;1205;61101;-79
2021/09/03 04:37:23;;;;;;;10.10;6.70;;;;;;;10.88;97.06;101567.04;110803;1204;61108;-77
2021/09/03 04:39:50;;;;;;;10.90;6.90;;;;;;;10.89;96.96;101567.58;110918;1205;61042;-77
2021/09/03 04:42:16;;;;;;;9.20;6.40;;;;;;;10.92;97.22;101569.62;110809;1205;61098;-76
2021/09/03 04:44:43;;;;;;;9.60;5.30;;;;;;;10.93;97.11;101565.75;110785;1205;61052;-77
2021/09/03 04:47:10;;;;;;;11.60;6.10;;;;;;;10.97;97.32;101565.17;110788;1198;74628;-77
2021/09/03 04:49:36;;;;;;;8.30;5.80;;;;;;;11.01;97.34;101569.05;110662;1197;61048;-77
2021/09/03 04:52:03;;;;;;;8.30;6.20;;;;;;;11.05;97.51;101568.80;110757;1205;61081;-78
2021/09/03 04:54:30;;;;;;;11.90;6.40;;;;;;;11.09;97.42;101569.85;110759;1204;61088;-78
2021/09/03 04:56:57;;;;;;;11.20;6.40;;;;;;;11.11;97.26;101565.76;110653;1207;61267;-79
2021/09/03 04:59:23;;;;;;;9.50;6.50;;;;;;;11.13;96.94;101571.34;110975;1206;74510;-78
2021/09/03 05:01:50;;;;;;;8.20;6.30;;;;;;;11.13;96.77;101565.50;110966;1198;72011;-78
2021/09/03 05:04:17;;;;;;;11.70;7.30;;;;;;;11.13;96.48;101570.08;110907;1205;72483;-78
2021/09/03 05:06:43;;;;;;;8.80;6.20;;;;;;;11.15;96.57;101565.91;110861;1205;61925;-75
2021/09/03 05:09:09;;;;;;;12.10;6.20;;;;;;;11.18;96.68;101565.39;110681;1205;61109;-74
2021/09/03 05:11:36;;;;;;;8.70;5.70;;;;;;;11.19;96.44;101567.19;110596;1206;61069;-75
2021/09/03 05:14:02;;;;;;;9.30;6.10;;;;;;;11.19;96.14;101565.84;110695;1205;61117;-75
2021/09/03 05:16:29;;;;;;;10.90;6.00;;;;;;;11.22;96.57;101564.80;110708;1205;61037;-75
2021/09/03 05:18:56;;;;;;;9.20;6.20;;;;;;;11.23;96.60;101563.59;110825;1205;61261;-75
2021/09/03 05:21:22;;;;;;;8.80;5.70;;;;;;;11.21;96.47;101561.00;110667;1205;61270;-74
2021/09/03 05:23:49;;;;;;;7.40;5.70;;;;;;;11.20;96.51;101558.10;110673;1204;61012;-73
2021/09/03 05:26:15;;;;;;;8.60;6.50;;;;;;;11.17;96.41;101558.89;110628;1206;61090;-73
2021/09/03 05:28:42;;;;;;;8.90;5.60;;;;;;;11.14;96.27;101554.39;110830;1206;61071;-71
2021/09/03 05:31:08;;;;;;;5.90;5.20;;;;;;;11.14;96.59;101559.96;110560;1206;61049;-71
2021/09/03 05:33:35;;;;;;;8.10;6.00;;;;;;;11.14;96.67;101561.70;110589;1205;61091;-73
2021/09/03 05:36:01;;;;;;;7.50;5.50;;;;;;;11.18;96.88;101561.12;110662;1205;61078;-71
2021/09/03 05:38:28;;;;;;;9.80;6.00;;;;;;;11.20;96.66;101559.47;110611;1205;61529;-71
2021/09/03 05:40:55;;;;;;;8.80;6.70;;;;;;;11.22;96.94;101557.12;110620;1205;61168;-72
2021/09/03 05:43:22;;;;;;;9.50;6.90;;;;;;;11.25;96.93;101552.59;110559;1207;60966;-73
2021/09/03 05:45:49;;;;;;;12.50;6.60;;;;;;;11.29;97.01;101555.49;110599;1205;61583;-72
2021/09/03 05:48:15;;;;;;;11.70;7.70;;;;;;;11.35;97.28;101557.89;110848;1198;75599;-72
2021/09/03 05:50:42;;;;;;;10.40;6.90;;;;;;;11.41;96.95;101556.61;110602;1205;61422;-74
2021/09/03 05:53:09;;;;;;;7.50;5.20;;;;;;;11.45;96.93;101553.77;110602;1205;61085;-71
2021/09/03 05:55:35;;;;;;;8.80;7.10;;;;;;;11.46;96.93;101552.23;110553;1205;61772;-74
2021/09/03 05:58:02;;;;;;;10.30;7.90;;;;;;;11.48;96.98;101551.27;110627;1205;61753;-74
2021/09/03 06:00:29;;;;;;;13.00;8.00;;;;;;;11.51;97.03;101553.24;110716;1205;75361;-73
2021/09/03 06:02:57;;;;;;;11.00;7.70;;;;;;;11.56;97.09;101554.21;111011;1205;70948;-71
2021/09/03 06:05:25;;;;;;;10.80;7.30;;;;;;;11.60;97.22;101557.09;110581;1206;72269;-71
2021/09/03 06:07:51;;;;;;;15.10;8.70;;;;;;;11.67;97.23;101560.63;110662;1205;62030;-74
2021/09/03 06:10:18;;;;;;;10.60;8.00;;;;;;;11.72;97.34;101560.09;110895;1205;61043;-71
2021/09/03 06:12:44;;;;;;;9.80;7.30;;;;;;;11.80;97.29;101557.52;110628;1205;74559;-71
2021/09/03 06:15:11;;;;;;;10.40;7.30;;;;;;;11.90;97.44;101552.08;110646;1205;72022;-71
2021/09/03 06:17:38;;;;;;;8.20;6.40;;;;;;;11.99;97.21;101551.77;110606;1205;61166;-73
2021/09/03 06:20:07;;;;;;;8.90;6.10;;;;;;;12.04;96.59;101552.86;110801;1205;61098;-73
2021/09/03 06:22:34;;;;;;;10.40;6.60;;;;;;;12.11;96.97;101547.85;111038;1205;61082;-74
2021/09/03 06:25:00;;;;;;;10.20;7.30;;;;;;;12.21;97.20;101552.25;111788;1198;75537;-74
2021/09/03 06:27:28;;;;;;;8.10;6.00;;;;;;;12.30;96.92;101549.48;110776;1205;71154;-71
2021/09/03 06:29:54;;;;;;;9.90;8.00;;;;;;;12.36;96.93;101551.04;110839;1206;61115;-72
2021/09/03 06:32:23;;;;;;;11.50;7.80;;;;;;;12.44;97.15;101549.16;110917;1200;61083;-72
2021/09/03 06:34:54;;;;;;;10.30;6.90;;;;;;;12.53;97.70;101547.11;111453;1198;61135;-71
2021/09/03 06:37:22;;;;;;;13.20;8.10;;;;;;;12.61;97.65;101546.88;110901;1203;74580;-71
2021/09/03 06:39:49;;;;;;;11.90;7.40;;;;;;;12.70;97.75;101547.23;110876;1205;70929;-72
2021/09/03 06:42:16;;;;;;;10.50;6.70;;;;;;;12.77;97.74;101550.48;110814;1205;73647;-73
2021/09/03 06:44:42;;;;;;;17.00;8.50;;;;;;;12.86;97.80;101560.36;110858;1205;61817;-72
2021/09/03 06:47:11;;;;;;;12.70;7.80;;;;;;;12.96;97.95;101552.52;110707;1205;61393;-74
2021/09/03 06:49:39;;;;;;;10.20;6.90;;;;;;;13.07;97.64;101551.50;110595;1205;75498;-71
2021/09/03 06:52:06;;;;;;;16.60;9.30;;;;;;;13.15;97.28;101550.17;110712;1205;71356;-72
2021/09/03 06:54:34;;;;;;;15.00;9.20;;;;;;;13.26;97.24;101546.55;110680;1202;73605;-73
2021/09/03 06:57:01;;;;;;;14.50;9.80;;;;;;;13.38;97.12;101547.17;110703;1205;61643;-73
2021/09/03 06:59:28;;;;;;;17.60;9.40;;;;;;;13.49;96.68;101548.10;110791;1205;61018;-73
2021/09/03 07:01:55;;;;;;;16.70;9.40;;;;;;;13.58;96.27;101547.75;110663;1205;61124;-74
2021/09/03 07:04:22;;;;;;;;;;;;;;;13.69;96.15;101540.13;114466;1198;70967;-74
2021/09/03 07:06:50;;;;;;;19.00;9.40;;;;;;;13.82;96.46;101537.73;113250;1198;61118;-72
2021/09/03 07:09:18;;;;;;;22.50;9.30;;;;;;;13.98;96.17;101533.60;110782;1198;61932;-74
2021/09/03 07:11:44;;;;;;;17.20;9.60;;;;;;;14.14;95.94;101531.89;110797;1204;61022;-71
2021/09/03 07:14:11;;;;;;;15.90;8.90;;;;;;;14.26;94.85;101528.80;110961;1204;74557;-72
2021/09/03 07:16:38;;;;;;;19.30;11.00;;;;;;;14.38;94.58;101531.61;110645;1205;70775;-73
2021/09/03 07:19:05;;;;;;;21.40;11.10;;;;;;;14.50;93.65;101529.34;110842;1204;72607;-74
2021/09/03 07:21:32;;;;;;;30.70;11.00;;;;;;;14.62;93.51;101530.49;110680;1205;61011;-73
2021/09/03 07:24:00;;;;;;;18.30;9.30;;;;;;;14.74;93.22;101532.81;110866;1203;61104;-74
2021/09/03 07:26:27;;;;;;;22.70;10.30;;;;;;;14.85;92.65;101531.83;110681;1205;75772;-72
2021/09/03 07:28:54;;;;;;;20.90;9.20;;;;;;;14.99;92.54;101531.42;110615;1205;72002;-71
2021/09/03 07:31:21;;;;;;;17.80;10.40;;;;;;;15.13;91.96;101534.17;111291;1198;71576;-73
2021/09/03 07:33:48;;;;;;;13.40;7.90;;;;;;;15.28;91.46;101532.72;110797;1206;61073;-71
2021/09/03 07:36:15;;;;;;;22.30;11.20;;;;;;;15.41;90.73;101535.73;110778;1205;61136;-73
2021/09/03 07:38:42;;;;;;;21.90;9.90;;;;;;;15.53;89.68;101538.11;110873;1205;74490;-73
2021/09/03 07:41:08;;;;;;;18.30;9.00;;;;;;;15.63;88.78;101539.23;110608;1206;71210;-73
2021/09/03 07:43:35;;;;;;;17.60;10.70;;;;;;;15.72;88.74;101533.05;110637;1203;61118;-71
2021/09/03 07:46:02;;;;;;;20.70;9.50;;;;;;;15.85;88.46;101533.48;110948;1198;61081;-73
2021/09/03 07:48:28;;;;;;;18.00;9.70;;;;;;;15.97;88.13;101525.19;111007;1205;61313;-72
2021/09/03 07:50:55;;;;;;;21.60;9.50;;;;;;;16.09;87.25;101525.30;110847;1205;76206;-72
2021/09/03 07:53:28;;;;;;;15.60;8.50;;;;;;;16.20;86.52;101524.86;110952;1205;60986;-72
2021/09/03 07:56:00;;;;;;;23.80;10.40;;;;;;;16.35;86.08;101525.20;110788;1204;72300;-73
2021/09/03 07:58:26;;;;;;;18.70;10.20;;;;;;;16.44;84.79;101521.41;110930;1198;61444;-74
2021/09/03 08:00:52;;;;;;;17.30;8.90;;;;;;;16.52;84.53;101518.79;110637;1205;61024;-73
2021/09/03 08:03:19;;;;;;;18.20;7.90;;;;;;;16.61;84.25;101518.87;110768;1205;74614;-72
2021/09/03 08:05:46;;;;;;;18.30;11.10;;;;;;;16.69;83.76;101522.43;110691;1205;70941;-73
2021/09/03 08:08:13;;;;;;;15.90;8.60;;;;;;;16.82;83.98;101523.69;110704;1205;61056;-74
2021/09/03 08:10:40;;;;;;;19.10;9.70;;;;;;;16.95;83.57;101521.27;110752;1205;61667;-72
2021/09/03 08:13:09;;;;;;;14.60;9.20;;;;;;;17.12;83.99;101521.86;110681;1205;61089;-76
2021/09/03 08:15:37;;;;;;;23.40;11.30;;;;;;;17.30;83.73;101518.94;110641;1205;75687;-74
2021/09/03 08:18:04;;;;;;;24.30;10.60;;;;;;;17.46;82.90;101516.02;110632;1205;70714;-73
2021/09/03 08:20:32;;;;;;;18.40;10.40;;;;;;;17.58;81.66;101516.75;110697;1199;72579;-72
2021/09/03 08:23:00;;;;;;;20.30;11.40;;;;;;;17.70;80.76;101516.12;110693;1205;61687;-72
2021/09/03 08:25:27;;;;;;;18.70;10.30;;;;;;;17.79;79.74;101517.89;110884;1198;61541;-75
2021/09/03 08:27:53;;;;;;;18.30;10.50;;;;;;;17.85;79.20;101516.23;110642;1205;61107;-73
2021/09/03 08:30:20;;;;;;;16.50;10.10;;;;;;;17.96;79.49;101515.92;110641;1205;71491;-74
2021/09/03 08:32:47;;;;;;;15.20;8.50;;;;;;;18.06;78.61;101510.52;110783;1205;73618;-74
2021/09/03 08:35:14;;;;;;;18.20;9.70;;;;;;;18.11;76.98;101509.30;110770;1205;62329;-74
2021/09/03 08:37:41;;;;;;;19.80;9.90;;;;;;;18.20;77.49;101509.34;110709;1205;61086;-74
2021/09/03 08:40:11;;;;;;;18.70;9.40;;;;;;;18.28;76.61;101504.42;110598;1205;73913;-72
2021/09/03 08:42:39;;;;;;;19.20;10.70;;;;;;;18.38;76.53;101507.40;110693;1203;72121;-74
2021/09/03 08:45:09;;;;;;;18.00;10.60;;;;;;;18.43;74.78;101506.66;110903;1205;73604;-73
2021/09/03 08:47:40;;;;;;;18.40;11.90;;;;;;;18.49;75.08;101505.39;110970;1205;61321;-72
2021/09/03 08:50:09;;;;;;;19.60;10.80;;;;;;;18.56;74.88;101500.48;110707;1205;62162;-75
2021/09/03 08:52:36;;;;;;;15.70;9.20;;;;;;;18.66;74.97;101500.73;110776;1205;75225;-75
2021/09/03 08:55:03;;;;;;;19.60;10.10;;;;;;;18.75;74.24;101501.51;110778;1205;70992;-74
2021/09/03 08:57:30;;;;;;;15.00;9.40;;;;;;;18.85;74.33;101500.56;110610;1205;73669;-74
2021/09/03 09:00:01;;;;;;;13.10;7.40;;;;;;;18.94;73.52;101499.39;110568;1205;61839;-75
2021/09/03 09:02:28;;;;;;;15.40;10.20;;;;;;;18.97;72.12;101501.40;110616;1205;61073;-73
2021/09/03 09:04:55;;;;;;;16.50;9.80;;;;;;;19.03;72.56;101506.48;110624;1205;74763;-73
2021/09/03 09:07:26;;;;;;;16.90;8.70;;;;;;;19.11;71.82;101512.25;110635;1205;71247;-76
2021/09/03 09:09:52;;;;;;;16.40;8.90;;;;;;;19.16;71.49;101508.02;110644;1205;73455;-73
2021/09/03 09:12:20;;;;;;;17.30;9.80;;;;;;;19.22;71.79;101512.71;110665;1205;61094;-74
2021/09/03 09:15:06;;;;;;;18.90;9.90;;;;;;;19.28;71.22;101513.48;110831;1205;61030;-75
2021/09/03 09:17:36;;;;;;;14.50;7.90;;;;;;;19.37;70.34;101507.03;111139;1198;74519;-74
2021/09/03 09:20:07;;;;;;;14.90;8.40;;;;;;;19.42;69.20;101506.71;110709;1205;70976;-74
2021/09/03 09:22:54;;;;;;;10.70;7.20;;;;;;;19.43;69.25;101505.84;110754;1206;73784;-77
2021/09/03 09:25:29;;;;;;;12.40;7.80;;;;;;;19.52;69.53;101501.11;110664;1205;61080;-72
2021/09/03 09:28:14;;;;;;;14.10;7.80;;;;;;;19.52;67.57;101507.09;110674;1206;61061;-75
2021/09/03 09:30:43;;;;;;;12.50;7.30;;;;;;;19.51;67.77;101500.55;110594;1205;74476;-74
2021/09/03 09:33:15;;;;;;;12.80;7.60;;;;;;;19.55;67.90;101498.50;110736;1205;69590;-75
2021/09/03 09:35:54;;;;;;;12.10;7.60;;;;;;;19.63;67.91;101492.09;110626;1205;73424;-74
2021/09/03 09:38:29;;;;;;;13.20;7.80;;;;;;;19.73;68.07;101489.27;110608;1205;61124;-74
2021/09/03 09:40:58;;;;;;;14.60;8.60;;;;;;;19.82;67.45;101487.61;110853;1204;61067;-74
2021/09/03 09:43:40;;;;;;;10.10;7.00;;;;;;;19.93;68.04;101482.64;110851;1205;75506;-73
2021/09/03 09:46:17;;;;;;;14.20;7.90;;;;;;;20.04;67.12;101486.88;110528;1205;71174;-76
2021/09/03 09:48:49;;;;;;;12.40;7.00;;;;;;;20.14;67.12;101482.95;110561;1205;73522;-75
2021/09/03 09:51:27;;;;;;;14.70;6.90;;;;;;;20.22;66.57;101475.39;110581;1205;63412;-75
2021/09/03 09:53:59;;;;;;;12.40;6.30;;;;;;;20.27;65.70;101472.06;110754;1205;60984;-73
2021/09/03 09:56:28;;;;;;;10.50;6.00;;;;;;;20.27;64.56;101470.71;110703;1206;75584;-74
2021/09/03 09:58:57;;;;;;;11.70;6.20;;;;;;;20.28;65.70;101472.14;110669;1205;70744;-76
2021/09/03 10:01:24;;;;;;;11.80;6.70;;;;;;;20.32;64.61;101475.13;110562;1203;74647;-74
2021/09/03 10:03:53;;;;;;;14.00;7.30;;;;;;;20.27;63.64;101470.48;110565;1205;61017;-76
2021/09/03 10:06:22;;;;;;;10.50;6.00;;;;;;;20.18;63.68;101471.44;110724;1198;61086;-74
2021/09/03 10:08:50;;;;;;;15.80;6.70;;;;;;;20.14;64.45;101467.98;110640;1204;76370;-74
2021/09/03 10:11:18;;;;;;;11.30;5.70;;;;;;;20.20;64.12;101463.59;110589;1205;72112;-73
2021/09/03 10:13:45;;;;;;;13.00;5.80;;;;;;;20.26;65.12;101461.05;110633;1205;72777;-72
2021/09/03 10:16:13;;;;;;;11.20;7.10;;;;;;;20.39;64.48;101463.88;110507;1205;61046;-73
2021/09/03 10:18:43;;;;;;;11.40;6.10;;;;;;;20.52;64.89;101459.52;110628;1205;61044;-73
2021/09/03 10:21:11;;;;;;;13.30;6.10;;;;;;;20.64;63.73;101462.67;110591;1205;74601;-72
2021/09/03 10:23:59;;;;;;;9.80;5.20;;;;;;;20.65;63.63;101460.00;110520;1205;70908;-74
2021/09/03 10:26:28;;;;;;;14.00;7.80;;;;;;;20.66;62.03;101463.68;110601;1204;73119;-73
2021/09/03 10:29:33;;;;;;;10.70;6.20;;;;;;;20.61;62.52;101457.67;110679;1204;61581;-74
2021/09/03 10:32:13;;;;;;;12.90;7.10;;;;;;;20.61;62.38;101455.20;110609;1205;61095;-73
2021/09/03 10:34:43;;;;;;;13.10;7.50;;;;;;;20.59;62.53;101450.85;110749;1204;74855;-71
2021/09/03 10:37:18;;;;;;;10.50;7.10;;;;;;;20.60;62.43;101444.97;110828;1204;72680;-73
2021/09/03 10:39:52;;;;;;;11.30;6.50;;;;;;;20.59;61.82;101450.30;110773;1204;73620;-72
2021/09/03 10:42:38;;;;;;;18.30;10.30;;;;;;;20.52;61.70;101442.44;110797;1205;60984;-73
2021/09/03 10:45:17;;;;;;;12.30;7.10;;;;;;;20.52;62.27;101440.33;110838;1205;61134;-72
2021/09/03 10:47:46;;;;;;;18.80;11.40;;;;;;;20.56;62.32;101437.02;110720;1205;74407;-73
2021/09/03 10:50:34;;;;;;;11.30;7.60;;;;;;;20.65;62.05;101431.64;110545;1205;72163;-73
2021/09/03 10:56:12;;;;;;;12.80;8.00;;;;;;;20.80;60.79;101430.45;110560;1205;61033;-71
2021/09/03 10:59:05;;;;;;;14.80;8.90;;;;;;;20.80;61.60;101425.98;110915;1206;61547;-72
2021/09/03 11:01:36;;;;;;;14.20;7.80;;;;;;;20.91;61.88;101423.50;110734;1205;74931;-74
2021/09/03 11:04:10;;;;;;;20.10;10.50;;;;;;;21.04;61.12;101425.75;110942;1205;71323;-73
2021/09/03 11:06:40;;;;;;;15.00;9.50;;;;;;;21.07;59.49;101416.83;110802;1204;72125;-72
2021/09/03 11:09:16;;;;;;;15.30;9.00;;;;;;;21.13;60.14;101415.18;110825;1204;61243;-73
2021/09/03 11:12:06;;;;;;;10.20;6.50;;;;;;;21.23;60.33;101411.43;110648;1205;61629;-73
2021/09/03 11:14:33;;;;;;;9.00;6.30;;;;;;;21.42;60.60;101409.81;110808;1204;74379;-72
2021/09/03 11:17:03;;;;;;;18.80;9.20;;;;;;;21.55;60.88;101400.99;110856;1205;72015;-71
2021/09/03 11:19:35;;;;;;;22.40;11.40;;;;;;;21.77;61.21;101399.57;110830;1205;72578;-71